Time;durP1;ratioP1;P1;durP2;ratioP2;P2;SDS_P1;SDS_P2;PMS_P1;PMS_P2;Temp;Humidity;BMP_temperature;BMP_pressure;BME280_temperature;BME280_humidity;BME280_pressure;Samples;Min_cycle;Max_cycle;Signal;HPM_P1;HPM_P2
2023/07/27 00:00:58;;;;;;;2.53;2.33;;;15.50;76.10;;;;;;951065;147;27441;-78
2023/07/27 00:03:24;;;;;;;2.85;2.40;;;15.50;76.40;;;;;;966956;145;27419;-78
2023/07/27 00:05:51;;;;;;;2.37;2.17;;;15.50;76.80;;;;;;950385;148;27461;-78
2023/07/27 00:08:17;;;;;;;3.83;2.50;;;15.50;77.10;;;;;;967614;145;27417;-78
2023/07/27 00:10:44;;;;;;;3.93;2.50;;;15.40;77.30;;;;;;950255;148;27465;-78
2023/07/27 00:13:10;;;;;;;3.60;2.50;;;15.40;77.50;;;;;;967090;145;27412;-78
2023/07/27 00:15:37;;;;;;;3.47;2.57;;;15.40;77.70;;;;;;968274;145;27329;-78
2023/07/27 00:18:04;;;;;;;2.95;2.75;;;15.40;78.20;;;;;;943904;148;27368;-78
2023/07/27 00:20:30;;;;;;;2.83;2.40;;;15.40;78.30;;;;;;950300;147;27390;-78
2023/07/27 00:22:57;;;;;;;2.50;2.30;;;15.40;78.50;;;;;;967820;145;27378;-78
2023/07/27 00:25:23;;;;;;;4.03;2.50;;;15.40;78.80;;;;;;967791;145;27324;-78
2023/07/27 00:27:50;;;;;;;3.00;2.47;;;15.40;79.00;;;;;;967542;145;27427;-78
2023/07/27 00:30:17;;;;;;;3.67;2.43;;;15.40;79.40;;;;;;967867;145;27364;-78
2023/07/27 00:32:43;;;;;;;4.10;2.70;;;15.40;79.80;;;;;;967456;145;27310;-78
2023/07/27 00:35:10;;;;;;;2.90;2.60;;;15.40;80.20;;;;;;968057;145;27334;-78
2023/07/27 00:37:36;;;;;;;3.40;2.50;;;15.40;80.70;;;;;;938714;147;27545;-78
2023/07/27 00:40:03;;;;;;;2.80;2.50;;;15.40;81.80;;;;;;946140;148;27393;-77
2023/07/27 00:42:30;;;;;;;4.53;2.90;;;15.40;81.50;;;;;;948757;147;27379;-79
2023/07/27 00:44:56;;;;;;;2.90;2.60;;;15.50;81.90;;;;;;926451;150;27411;-78
2023/07/27 00:47:23;;;;;;;2.70;2.40;;;15.50;82.30;;;;;;926023;150;27403;-78
2023/07/27 00:49:49;;;;;;;3.57;3.00;;;15.60;82.70;;;;;;947843;146;27343;-78
2023/07/27 00:52:16;;;;;;;2.97;2.53;;;15.60;83.10;;;;;;933354;150;27346;-78
2023/07/27 00:54:42;;;;;;;3.92;2.55;;;15.70;83.40;;;;;;950059;147;27636;-78
2023/07/27 00:57:09;;;;;;;3.95;3.00;;;15.80;83.50;;;;;;932881;150;27465;-78
2023/07/27 00:59:36;;;;;;;3.30;2.53;;;15.80;83.80;;;;;;949144;147;27464;-78
2023/07/27 01:02:02;;;;;;;3.87;2.72;;;15.90;84.00;;;;;;925994;150;27371;-78
2023/07/27 01:04:29;;;;;;;3.60;2.22;;;16.00;84.00;;;;;;949706;147;27360;-78
2023/07/27 01:06:55;;;;;;;2.80;2.60;;;16.00;84.00;;;;;;949616;147;27388;-78
2023/07/27 01:09:22;;;;;;;2.62;2.30;;;16.10;84.00;;;;;;949901;147;27430;-78
2023/07/27 01:12:13;;;;;;;3.87;2.40;;;16.10;84.00;;;;;;926255;150;27342;-78
2023/07/27 01:14:42;;;;;;;2.67;2.47;;;16.20;83.90;;;;;;942283;149;27459;-79
2023/07/27 01:17:21;;;;;;;2.40;2.20;;;16.20;83.60;;;;;;940445;149;27354;-80
2023/07/27 01:20:03;;;;;;;2.43;2.23;;;16.30;83.90;;;;;;941175;149;27369;-79
2023/07/27 01:22:32;;;;;;;2.70;2.50;;;16.30;83.70;;;;;;949662;147;27450;-79
2023/07/27 01:25:23;;;;;;;2.67;2.30;;;16.30;83.70;;;;;;942424;148;27463;-79
2023/07/27 01:28:08;;;;;;;2.62;2.35;;;16.30;83.90;;;;;;933493;150;27439;-78
2023/07/27 01:30:53;;;;;;;2.40;2.20;;;16.40;83.80;;;;;;949647;147;27832;-78
2023/07/27 01:33:19;;;;;;;3.90;2.40;;;16.40;83.80;;;;;;948790;147;27425;-79
2023/07/27 01:35:51;;;;;;;4.20;2.12;;;16.40;83.90;;;;;;947359;148;27738;-78
2023/07/27 01:38:18;;;;;;;2.47;2.17;;;16.40;83.90;;;;;;946969;148;27364;-79
2023/07/27 01:40:44;;;;;;;2.80;2.22;;;16.40;84.20;;;;;;949996;147;27348;-79
2023/07/27 01:43:11;;;;;;;3.00;2.70;;;16.50;84.50;;;;;;954524;146;27388;-79
2023/07/27 01:45:38;;;;;;;2.87;2.53;;;16.50;84.70;;;;;;947186;148;27709;-79
2023/07/27 01:48:04;;;;;;;2.90;2.70;;;16.50;84.80;;;;;;932063;149;28208;-79
2023/07/27 01:50:31;;;;;;;2.42;2.22;;;16.60;84.80;;;;;;930969;149;27321;-79
2023/07/27 01:52:57;;;;;;;2.50;2.30;;;16.60;84.70;;;;;;931463;149;27339;-78
2023/07/27 01:55:24;;;;;;;2.45;2.20;;;16.60;85.30;;;;;;946916;148;27853;-79
2023/07/27 01:57:51;;;;;;;2.77;2.58;;;16.70;84.40;;;;;;931961;149;27391;-79
2023/07/27 02:00:18;;;;;;;2.40;2.20;;;16.70;84.50;;;;;;932655;149;27315;-79
2023/07/27 02:02:44;;;;;;;2.55;2.35;;;16.70;84.20;;;;;;948872;146;27318;-79
2023/07/27 02:05:10;;;;;;;2.40;2.17;;;16.80;84.20;;;;;;931878;149;27341;-79
2023/07/27 02:07:37;;;;;;;2.62;2.30;;;16.80;84.10;;;;;;931653;149;27366;-79
2023/07/27 02:10:06;;;;;;;2.47;2.20;;;16.80;83.90;;;;;;932427;149;27438;-74
2023/07/27 02:12:33;;;;;;;2.17;1.98;;;16.80;83.80;;;;;;931393;149;27320;-75
2023/07/27 02:15:02;;;;;;;2.42;2.22;;;16.80;83.60;;;;;;932267;149;27336;-75
2023/07/27 02:17:39;;;;;;;2.47;2.30;;;16.80;83.50;;;;;;932462;149;27355;-75
2023/07/27 02:20:05;;;;;;;2.27;2.08;;;16.80;83.50;;;;;;948733;146;27355;-75
2023/07/27 02:22:32;;;;;;;1.98;1.87;;;16.80;83.50;;;;;;932555;149;27477;-75
2023/07/27 02:24:58;;;;;;;2.33;2.20;;;16.80;83.60;;;;;;953765;146;27388;-75
2023/07/27 02:27:25;;;;;;;3.40;2.50;;;16.80;83.70;;;;;;954130;146;27331;-75
2023/07/27 02:29:51;;;;;;;3.27;2.33;;;16.80;83.80;;;;;;954115;146;27323;-75
2023/07/27 02:32:18;;;;;;;2.33;2.22;;;16.80;83.80;;;;;;947900;148;27438;-75
2023/07/27 02:34:45;;;;;;;2.85;2.35;;;16.70;83.90;;;;;;946811;148;27485;-75
2023/07/27 02:37:11;;;;;;;2.27;2.17;;;16.80;84.10;;;;;;954076;146;27337;-75
2023/07/27 02:39:38;;;;;;;2.42;2.22;;;16.70;84.20;;;;;;948846;146;27392;-75
2023/07/27 02:42:04;;;;;;;2.30;2.10;;;16.70;84.40;;;;;;931826;149;27409;-75
2023/07/27 02:44:31;;;;;;;2.75;2.45;;;16.80;84.50;;;;;;950611;147;27343;-75
2023/07/27 02:46:57;;;;;;;2.92;2.27;;;16.80;84.90;;;;;;949858;147;27374;-75
2023/07/27 02:49:24;;;;;;;2.08;1.98;;;16.80;85.00;;;;;;950359;147;27316;-75
2023/07/27 02:51:51;;;;;;;2.58;2.05;;;16.80;85.00;;;;;;933057;149;27378;-75
2023/07/27 02:54:17;;;;;;;2.37;2.17;;;16.80;85.10;;;;;;950237;147;27357;-75
2023/07/27 02:56:44;;;;;;;2.15;2.05;;;16.80;85.20;;;;;;950259;147;27406;-74
2023/07/27 02:59:10;;;;;;;3.37;2.37;;;16.90;85.30;;;;;;933828;150;27415;-75
2023/07/27 03:01:37;;;;;;;2.40;2.20;;;16.90;85.20;;;;;;949836;147;27409;-75
2023/07/27 03:04:04;;;;;;;2.22;2.10;;;16.90;85.20;;;;;;950394;147;27325;-75
2023/07/27 03:06:30;;;;;;;2.67;2.42;;;16.90;85.20;;;;;;933979;149;27423;-75
2023/07/27 03:08:57;;;;;;;2.45;2.25;;;17.00;85.20;;;;;;949187;147;27418;-75
2023/07/27 03:11:23;;;;;;;2.35;1.92;;;16.90;85.20;;;;;;926830;150;27784;-75
2023/07/27 03:13:50;;;;;;;4.03;2.35;;;17.00;85.20;;;;;;926160;150;27460;-75
2023/07/27 03:16:17;;;;;;;2.37;2.20;;;16.90;85.20;;;;;;932898;150;27457;-75
2023/07/27 03:18:43;;;;;;;2.95;2.22;;;17.00;85.30;;;;;;949565;147;27412;-75
2023/07/27 03:21:10;;;;;;;3.35;2.20;;;17.00;85.40;;;;;;949867;147;27414;-75
2023/07/27 03:23:36;;;;;;;2.50;2.30;;;17.00;85.40;;;;;;948752;146;27356;-74
2023/07/27 03:26:09;;;;;;;2.67;2.20;;;17.00;85.50;;;;;;933152;150;27471;-75
2023/07/27 03:28:35;;;;;;;2.58;2.30;;;17.00;85.70;;;;;;945731;147;27412;-75
2023/07/27 03:31:02;;;;;;;2.45;1.98;;;17.00;85.70;;;;;;949776;147;27337;-75
2023/07/27 03:33:28;;;;;;;2.25;2.05;;;17.00;85.80;;;;;;949315;147;27361;-75
2023/07/27 03:35:55;;;;;;;2.25;2.05;;;17.00;86.00;;;;;;950165;147;27437;-75
2023/07/27 03:38:21;;;;;;;2.22;2.05;;;17.00;86.10;;;;;;948874;147;27320;-75
2023/07/27 03:40:48;;;;;;;3.77;2.50;;;17.00;86.20;;;;;;933603;150;27331;-75
2023/07/27 03:43:15;;;;;;;2.55;2.30;;;17.00;86.10;;;;;;952618;147;27460;-75
2023/07/27 03:45:41;;;;;;;3.37;2.35;;;17.00;86.30;;;;;;962926;146;27339;-75
2023/07/27 03:48:08;;;;;;;2.55;2.20;;;17.00;86.30;;;;;;962867;146;27318;-74
2023/07/27 03:50:34;;;;;;;4.90;2.92;;;17.00;86.30;;;;;;962717;146;27317;-75
2023/07/27 03:53:01;;;;;;;2.20;2.10;;;17.10;86.50;;;;;;945463;149;27341;-75
2023/07/27 03:55:27;;;;;;;3.33;2.25;;;17.10;86.50;;;;;;962593;146;27436;-75
2023/07/27 03:57:54;;;;;;;3.45;2.42;;;17.10;86.70;;;;;;946026;148;27422;-74
2023/07/27 04:00:21;;;;;;;3.20;2.60;;;17.10;86.70;;;;;;942606;149;27337;-74
2023/07/27 04:02:47;;;;;;;2.20;2.08;;;17.10;86.70;;;;;;961283;148;27396;-75
2023/07/27 04:05:14;;;;;;;2.42;2.22;;;17.10;86.90;;;;;;945815;148;27381;-75
2023/07/27 04:07:40;;;;;;;2.30;2.12;;;17.10;86.90;;;;;;962760;145;27430;-75
2023/07/27 04:10:07;;;;;;;4.80;2.33;;;17.10;87.00;;;;;;962845;146;27307;-75
2023/07/27 04:12:34;;;;;;;2.72;2.30;;;17.10;87.00;;;;;;962749;146;27426;-75
2023/07/27 04:15:00;;;;;;;2.50;2.30;;;17.20;87.20;;;;;;947587;148;27348;-75
2023/07/27 04:17:27;;;;;;;3.02;2.30;;;17.20;87.40;;;;;;946381;148;27484;-75
2023/07/27 04:19:53;;;;;;;4.05;2.22;;;17.20;87.40;;;;;;947104;148;27466;-75
2023/07/27 04:22:20;;;;;;;2.50;2.22;;;17.20;87.50;;;;;;948154;148;27671;-75
2023/07/27 04:24:47;;;;;;;3.03;2.40;;;17.20;87.50;;;;;;942324;149;27324;-75
2023/07/27 04:27:13;;;;;;;2.77;2.45;;;17.30;87.60;;;;;;962767;146;27347;-75
2023/07/27 04:29:40;;;;;;;2.27;2.15;;;17.30;87.70;;;;;;963769;145;27358;-74
2023/07/27 04:32:06;;;;;;;2.37;2.02;;;17.30;87.90;;;;;;947124;148;27336;-75
2023/07/27 04:34:33;;;;;;;2.62;2.42;;;17.40;88.00;;;;;;947316;148;27379;-75
2023/07/27 04:36:59;;;;;;;3.35;2.30;;;17.40;88.20;;;;;;942470;149;27482;-75
2023/07/27 04:39:26;;;;;;;2.40;2.20;;;17.40;88.20;;;;;;963909;145;27432;-75
2023/07/27 04:41:53;;;;;;;3.30;2.22;;;17.40;88.30;;;;;;962523;145;27471;-75
2023/07/27 04:44:19;;;;;;;3.45;2.62;;;17.50;88.60;;;;;;939987;148;27390;-75
2023/07/27 04:46:46;;;;;;;3.00;2.70;;;17.50;88.90;;;;;;934041;150;27427;-75
2023/07/27 04:49:12;;;;;;;2.52;1.95;;;17.50;89.20;;;;;;949899;147;27337;-75
2023/07/27 04:51:39;;;;;;;4.00;2.30;;;17.50;89.20;;;;;;943157;148;27465;-75
2023/07/27 04:54:06;;;;;;;2.52;2.25;;;17.50;89.10;;;;;;941316;149;27353;-75
2023/07/27 04:56:32;;;;;;;3.15;2.15;;;17.50;89.40;;;;;;950288;147;27335;-75
2023/07/27 04:58:59;;;;;;;2.02;1.90;;;17.50;89.40;;;;;;948686;147;27324;-75
2023/07/27 05:01:25;;;;;;;2.90;2.65;;;17.50;89.50;;;;;;951272;147;27340;-75
2023/07/27 05:03:52;;;;;;;2.30;2.20;;;17.50;89.70;;;;;;949433;147;27304;-75
2023/07/27 05:06:19;;;;;;;2.22;2.02;;;17.50;90.00;;;;;;925758;150;27327;-75
2023/07/27 05:08:45;;;;;;;3.47;2.12;;;17.50;90.10;;;;;;941926;149;27442;-75
2023/07/27 05:11:12;;;;;;;3.00;2.60;;;17.50;90.30;;;;;;941614;149;27455;-75
2023/07/27 05:13:38;;;;;;;3.37;2.33;;;17.50;90.50;;;;;;933275;150;27458;-75
2023/07/27 05:16:05;;;;;;;2.58;2.30;;;17.50;90.70;;;;;;948845;147;27252;-75
2023/07/27 05:18:31;;;;;;;2.15;1.95;;;17.60;91.10;;;;;;949646;147;27301;-75
2023/07/27 05:20:58;;;;;;;2.27;2.08;;;17.60;91.30;;;;;;950012;147;27317;-75
2023/07/27 05:23:25;;;;;;;3.50;2.17;;;17.60;91.30;;;;;;951797;147;27337;-75
2023/07/27 05:25:51;;;;;;;4.62;2.90;;;17.60;91.70;;;;;;933157;150;27365;-75
2023/07/27 05:28:18;;;;;;;2.20;2.00;;;17.60;91.90;;;;;;950371;147;27329;-75
2023/07/27 05:30:44;;;;;;;2.52;2.05;;;17.60;92.10;;;;;;949741;147;27307;-75
2023/07/27 05:33:11;;;;;;;2.45;2.25;;;17.60;92.20;;;;;;948529;147;27353;-75
2023/07/27 05:35:38;;;;;;;2.67;2.00;;;17.70;92.50;;;;;;926994;150;27377;-75
2023/07/27 05:38:04;;;;;;;3.42;2.20;;;17.70;92.70;;;;;;942325;149;27442;-75
2023/07/27 05:40:31;;;;;;;2.33;2.12;;;17.70;92.80;;;;;;942032;149;27884;-75
2023/07/27 05:42:57;;;;;;;2.00;1.87;;;17.70;93.10;;;;;;941724;149;27342;-75
2023/07/27 05:45:24;;;;;;;2.50;2.30;;;17.80;93.30;;;;;;942102;149;27497;-75
2023/07/27 05:47:51;;;;;;;2.52;2.33;;;17.80;93.40;;;;;;947662;147;27410;-75
2023/07/27 05:50:17;;;;;;;4.62;2.65;;;17.80;93.30;;;;;;948702;147;27393;-75
2023/07/27 05:52:44;;;;;;;3.02;2.25;;;17.90;93.40;;;;;;948861;147;27355;-75
2023/07/27 05:55:10;;;;;;;3.22;2.60;;;17.90;93.50;;;;;;941811;149;27423;-75
2023/07/27 05:57:37;;;;;;;2.52;2.10;;;18.00;93.80;;;;;;942464;149;27373;-75
2023/07/27 06:00:04;;;;;;;2.47;2.27;;;18.00;94.10;;;;;;943402;149;27423;-75
2023/07/27 06:02:30;;;;;;;3.02;2.47;;;18.20;94.40;;;;;;942140;149;27341;-75
2023/07/27 06:04:57;;;;;;;2.50;2.30;;;18.20;94.60;;;;;;948005;147;27237;-75
2023/07/27 06:07:25;;;;;;;3.37;2.17;;;18.30;94.80;;;;;;948736;146;27351;-75
2023/07/27 06:09:50;;;;;;;2.35;2.15;;;18.40;94.70;;;;;;950447;147;27412;-75
2023/07/27 06:12:17;;;;;;;2.45;2.25;;;18.50;94.60;;;;;;948914;146;27319;-75
2023/07/27 06:14:44;;;;;;;3.67;2.02;;;18.60;94.20;;;;;;932898;150;27424;-75
2023/07/27 06:17:10;;;;;;;3.02;2.77;;;18.70;93.50;;;;;;949697;147;27352;-76
2023/07/27 06:19:36;;;;;;;3.72;2.42;;;18.70;93.20;;;;;;947762;147;27452;-74
2023/07/27 06:22:03;;;;;;;2.30;2.00;;;18.80;92.70;;;;;;941881;149;27454;-75
2023/07/27 06:24:30;;;;;;;3.62;2.50;;;18.90;92.70;;;;;;941968;149;27330;-75
2023/07/27 06:26:56;;;;;;;3.87;2.20;;;18.90;92.70;;;;;;942940;149;27322;-74
2023/07/27 06:29:23;;;;;;;4.03;2.50;;;18.90;92.60;;;;;;947353;147;27336;-75
2023/07/27 06:31:49;;;;;;;2.52;2.20;;;19.00;92.70;;;;;;948115;146;27415;-74
2023/07/27 06:34:16;;;;;;;2.85;2.40;;;19.00;92.70;;;;;;933105;150;27372;-74
2023/07/27 06:36:43;;;;;;;2.17;2.08;;;19.00;92.70;;;;;;950469;147;27308;-74
2023/07/27 06:39:09;;;;;;;2.55;2.35;;;19.10;92.90;;;;;;931910;148;27332;-75
2023/07/27 06:41:36;;;;;;;2.60;2.30;;;19.10;93.00;;;;;;932909;149;27783;-74
2023/07/27 06:44:02;;;;;;;2.17;1.98;;;19.20;93.10;;;;;;950374;147;27323;-74
2023/07/27 06:46:29;;;;;;;4.25;3.05;;;19.20;93.10;;;;;;958147;146;27442;-74
2023/07/27 06:48:55;;;;;;;2.58;2.37;;;19.30;92.90;;;;;;962832;146;27440;-74
2023/07/27 06:51:23;;;;;;;2.40;2.20;;;19.30;92.70;;;;;;963288;145;27330;-75
2023/07/27 06:53:49;;;;;;;3.42;2.42;;;19.40;92.60;;;;;;962654;146;27399;-75
2023/07/27 06:56:17;;;;;;;2.00;1.90;;;19.40;92.60;;;;;;962560;146;27436;-75
2023/07/27 06:58:42;;;;;;;2.62;2.25;;;19.40;92.30;;;;;;945398;149;27306;-74
2023/07/27 07:01:10;;;;;;;2.50;2.05;;;19.40;92.50;;;;;;962972;146;27443;-75
2023/07/27 07:03:35;;;;;;;2.90;2.25;;;19.40;92.50;;;;;;961975;146;27338;-75
2023/07/27 07:06:02;;;;;;;2.70;2.47;;;19.40;92.40;;;;;;945224;148;27419;-74
2023/07/27 07:08:29;;;;;;;4.15;2.50;;;19.40;92.50;;;;;;962641;146;27342;-74
2023/07/27 07:10:55;;;;;;;3.35;2.33;;;19.40;92.70;;;;;;965935;145;27330;-74
2023/07/27 07:13:21;;;;;;;5.50;2.62;;;19.40;92.90;;;;;;962633;146;27343;-74
2023/07/27 07:15:48;;;;;;;2.33;2.22;;;19.50;93.50;;;;;;962688;146;27411;-74
2023/07/27 07:18:14;;;;;;;2.58;2.30;;;19.50;93.90;;;;;;961617;146;27677;-74
2023/07/27 07:20:41;;;;;;;4.58;2.20;;;19.60;94.00;;;;;;961767;146;27325;-74
2023/07/27 07:23:08;;;;;;;3.40;2.50;;;19.60;94.00;;;;;;962635;146;27889;-75
2023/07/27 07:25:34;;;;;;;3.67;2.52;;;19.70;94.00;;;;;;962221;146;27471;-75
2023/07/27 07:28:01;;;;;;;2.15;2.05;;;19.80;93.50;;;;;;962173;146;27382;-75
2023/07/27 07:30:27;;;;;;;2.85;1.90;;;19.80;93.50;;;;;;963372;146;27315;-75
2023/07/27 07:32:54;;;;;;;3.98;1.95;;;19.90;93.50;;;;;;963459;146;27312;-75
2023/07/27 07:35:21;;;;;;;2.05;1.95;;;19.90;93.30;;;;;;963555;146;27470;-75
2023/07/27 07:37:48;;;;;;;2.45;2.25;;;20.00;93.20;;;;;;961646;146;27306;-75
2023/07/27 07:40:16;;;;;;;3.77;2.20;;;20.00;93.10;;;;;;956951;146;27303;-75
2023/07/27 07:42:40;;;;;;;2.65;2.00;;;20.00;93.20;;;;;;958175;148;27346;-75
2023/07/27 07:45:07;;;;;;;2.30;1.95;;;20.00;93.10;;;;;;958450;146;27335;-75
2023/07/27 07:47:34;;;;;;;2.35;2.15;;;20.00;93.30;;;;;;958149;146;27503;-75
2023/07/27 07:50:00;;;;;;;2.22;2.05;;;20.00;93.50;;;;;;957736;148;27347;-75
2023/07/27 07:52:27;;;;;;;2.58;1.82;;;20.00;93.70;;;;;;957584;146;27339;-75
2023/07/27 07:54:53;;;;;;;2.37;2.17;;;20.00;93.80;;;;;;958478;146;27766;-75
2023/07/27 07:57:20;;;;;;;2.52;1.77;;;20.00;93.70;;;;;;958056;148;27454;-75
2023/07/27 07:59:47;;;;;;;1.98;1.82;;;20.00;93.80;;;;;;957983;148;27300;-75
2023/07/27 08:02:14;;;;;;;2.12;1.90;;;20.00;93.40;;;;;;958372;148;27431;-75
2023/07/27 08:04:40;;;;;;;2.25;1.95;;;20.00;92.80;;;;;;957306;148;27404;-75
2023/07/27 08:07:07;;;;;;;2.20;2.00;;;20.00;92.60;;;;;;958137;148;27442;-75
2023/07/27 08:09:33;;;;;;;1.72;1.62;;;19.90;92.50;;;;;;957179;148;27425;-75
2023/07/27 08:11:59;;;;;;;2.02;1.82;;;19.90;92.40;;;;;;958568;146;27299;-75
2023/07/27 08:14:26;;;;;;;2.15;2.05;;;19.90;92.30;;;;;;958278;146;27292;-75
2023/07/27 08:16:53;;;;;;;2.20;1.62;;;19.80;92.60;;;;;;958865;148;27327;-75
2023/07/27 08:19:20;;;;;;;1.82;1.70;;;19.80;92.60;;;;;;958542;148;27435;-75
2023/07/27 08:21:46;;;;;;;2.10;2.00;;;19.80;92.80;;;;;;957532;148;27303;-75
2023/07/27 08:24:12;;;;;;;3.33;1.70;;;19.70;92.90;;;;;;946515;148;27795;-75
2023/07/27 08:26:39;;;;;;;2.45;2.00;;;19.70;93.10;;;;;;963368;146;27333;-75
2023/07/27 08:29:06;;;;;;;2.72;2.08;;;19.70;93.40;;;;;;942496;149;27351;-75
2023/07/27 08:31:32;;;;;;;2.20;2.02;;;19.70;93.60;;;;;;963416;146;28405;-75
2023/07/27 08:33:59;;;;;;;2.83;1.92;;;19.70;93.70;;;;;;945080;148;27385;-75
2023/07/27 08:36:25;;;;;;;1.85;1.75;;;19.70;93.70;;;;;;962893;146;27291;-75
2023/07/27 08:38:52;;;;;;;1.90;1.80;;;19.70;94.00;;;;;;943765;148;27466;-75
2023/07/27 08:41:19;;;;;;;2.02;1.75;;;19.70;94.30;;;;;;964683;145;27339;-75
2023/07/27 08:43:45;;;;;;;2.33;2.08;;;19.70;94.40;;;;;;939514;149;27408;-75
2023/07/27 08:46:12;;;;;;;3.83;2.42;;;19.70;94.40;;;;;;939901;149;27373;-75
2023/07/27 08:48:38;;;;;;;4.87;2.15;;;19.70;94.40;;;;;;967339;145;27366;-75
2023/07/27 08:51:05;;;;;;;1.95;1.85;;;19.70;94.20;;;;;;966413;145;27330;-75
2023/07/27 08:53:32;;;;;;;1.85;1.70;;;19.70;94.20;;;;;;950548;148;27421;-75
2023/07/27 08:55:58;;;;;;;2.30;2.10;;;19.70;94.20;;;;;;966644;145;27654;-75
2023/07/27 08:58:25;;;;;;;2.30;2.10;;;19.60;94.00;;;;;;951438;147;27362;-75
2023/07/27 09:00:51;;;;;;;3.05;2.12;;;19.60;94.10;;;;;;949028;148;27457;-75
2023/07/27 09:03:18;;;;;;;2.27;2.02;;;19.60;94.00;;;;;;967333;145;27439;-75
2023/07/27 09:05:44;;;;;;;2.25;1.92;;;19.50;93.90;;;;;;950868;148;27358;-75
2023/07/27 09:08:14;;;;;;;1.95;1.85;;;19.50;94.10;;;;;;947558;148;27422;-75
2023/07/27 09:10:41;;;;;;;1.70;1.57;;;19.40;94.40;;;;;;948975;148;27321;-75
2023/07/27 09:13:07;;;;;;;2.42;1.82;;;19.40;94.50;;;;;;966484;145;27328;-75
2023/07/27 09:15:34;;;;;;;2.05;1.40;;;19.30;94.70;;;;;;949961;148;27445;-74
2023/07/27 09:18:01;;;;;;;1.90;1.80;;;19.30;94.90;;;;;;966025;145;27297;-75
2023/07/27 09:20:30;;;;;;;2.10;1.90;;;19.30;95.10;;;;;;953065;148;27434;-75
2023/07/27 09:22:59;;;;;;;2.47;1.85;;;19.20;95.20;;;;;;951027;148;27477;-75
2023/07/27 09:25:25;;;;;;;1.77;1.57;;;19.20;95.20;;;;;;949176;148;27469;-75
2023/07/27 09:27:55;;;;;;;2.85;1.92;;;19.20;95.50;;;;;;967537;145;27352;-75
2023/07/27 09:30:22;;;;;;;2.47;1.77;;;19.20;95.80;;;;;;950948;148;27390;-75
2023/07/27 09:32:48;;;;;;;2.17;1.90;;;19.20;96.00;;;;;;966870;145;27431;-74
2023/07/27 09:35:15;;;;;;;7.20;2.60;;;19.20;96.10;;;;;;967475;145;27370;-74
2023/07/27 09:37:44;;;;;;;1.40;1.30;;;19.20;96.20;;;;;;958487;147;27299;-74
2023/07/27 09:40:12;;;;;;;2.12;2.02;;;19.20;96.20;;;;;;967414;145;27450;-74
2023/07/27 09:42:37;;;;;;;1.90;1.80;;;19.20;96.30;;;;;;950870;148;27355;-75
2023/07/27 09:45:04;;;;;;;2.62;1.70;;;19.20;96.50;;;;;;968385;145;27799;-75
2023/07/27 09:47:31;;;;;;;3.00;1.62;;;19.20;96.80;;;;;;945166;148;27473;-74
2023/07/27 09:50:02;;;;;;;2.08;1.70;;;19.20;96.70;;;;;;942908;148;27417;-74
2023/07/27 09:52:29;;;;;;;3.25;1.55;;;19.20;96.70;;;;;;949400;147;27476;-75
2023/07/27 09:54:55;;;;;;;1.75;1.65;;;19.30;96.70;;;;;;949402;147;27409;-75
2023/07/27 09:57:22;;;;;;;1.75;1.65;;;19.30;96.80;;;;;;931989;150;27352;-75
2023/07/27 09:59:48;;;;;;;1.55;1.45;;;19.30;96.70;;;;;;949601;147;27460;-75
2023/07/27 10:02:15;;;;;;;1.70;1.60;;;19.30;96.50;;;;;;941678;149;27375;-75
2023/07/27 10:04:42;;;;;;;1.70;1.60;;;19.40;96.90;;;;;;949723;147;27301;-75
2023/07/27 10:07:08;;;;;;;2.05;1.50;;;19.40;97.00;;;;;;925812;150;27764;-75
2023/07/27 10:09:35;;;;;;;2.42;1.70;;;19.40;97.20;;;;;;941926;149;27455;-75
2023/07/27 10:12:03;;;;;;;1.57;1.45;;;19.40;97.20;;;;;;941704;149;27486;-75
2023/07/27 10:14:28;;;;;;;1.72;1.32;;;19.50;97.10;;;;;;941604;149;27851;-75
2023/07/27 10:17:04;;;;;;;1.55;1.45;;;19.60;97.20;;;;;;932984;150;27338;-75
2023/07/27 10:19:42;;;;;;;2.00;1.80;;;19.60;97.20;;;;;;950640;147;27692;-75
2023/07/27 10:22:14;;;;;;;1.70;1.60;;;19.70;97.20;;;;;;936015;150;27425;-75
2023/07/27 10:24:50;;;;;;;1.98;1.87;;;19.70;97.30;;;;;;935855;149;27487;-75
2023/07/27 10:27:16;;;;;;;1.75;1.65;;;19.80;97.00;;;;;;934984;149;27369;-75
2023/07/27 10:29:43;;;;;;;1.90;1.80;;;19.80;96.70;;;;;;935580;149;27612;-75
2023/07/27 10:32:11;;;;;;;2.02;1.90;;;19.90;96.40;;;;;;932830;149;27478;-75
2023/07/27 10:34:36;;;;;;;2.10;1.70;;;19.90;96.20;;;;;;934690;149;27396;-75
2023/07/27 10:37:02;;;;;;;1.90;1.65;;;19.90;96.20;;;;;;933985;149;27390;-75
2023/07/27 10:39:29;;;;;;;2.58;1.87;;;19.90;96.30;;;;;;950106;147;27357;-75
2023/07/27 10:42:05;;;;;;;1.92;1.67;;;19.90;96.30;;;;;;949870;147;27345;-75
2023/07/27 10:44:49;;;;;;;1.92;1.45;;;20.00;96.30;;;;;;942383;148;27430;-75
2023/07/27 10:47:37;;;;;;;2.12;1.50;;;20.00;96.10;;;;;;949323;147;27363;-75
2023/07/27 10:50:00;;;;;;;2.85;1.80;;;20.00;96.10;;;;;;938434;148;27488;-75
2023/07/27 10:52:27;;;;;;;1.90;1.80;;;20.00;95.80;;;;;;964066;146;27365;-75
2023/07/27 10:54:56;;;;;;;2.00;1.90;;;20.00;95.70;;;;;;946293;148;27344;-75
2023/07/27 10:57:20;;;;;;;3.22;1.37;;;20.00;96.00;;;;;;944884;148;27410;-75
2023/07/27 10:59:47;;;;;;;1.60;1.50;;;20.00;96.00;;;;;;963245;146;27326;-75
2023/07/27 11:02:16;;;;;;;2.05;1.90;;;19.90;96.10;;;;;;942900;149;27364;-75
2023/07/27 11:04:43;;;;;;;2.05;1.67;;;19.90;96.50;;;;;;962722;146;27359;-75
2023/07/27 11:07:12;;;;;;;4.90;1.90;;;19.90;96.30;;;;;;943928;149;27450;-75
2023/07/27 11:09:36;;;;;;;1.95;1.85;;;19.90;96.30;;;;;;961970;146;27338;-75
2023/07/27 11:12:03;;;;;;;3.08;1.85;;;20.00;96.60;;;;;;963271;146;27331;-75
2023/07/27 11:14:29;;;;;;;2.20;2.00;;;20.00;96.80;;;;;;966668;145;27469;-75
2023/07/27 11:16:56;;;;;;;2.02;1.82;;;20.00;96.90;;;;;;946089;149;27409;-75
2023/07/27 11:19:22;;;;;;;1.98;1.77;;;20.00;97.10;;;;;;945425;148;27332;-75
2023/07/27 11:21:49;;;;;;;1.90;1.80;;;20.10;97.10;;;;;;962877;146;27339;-75
2023/07/27 11:24:16;;;;;;;2.10;1.90;;;20.10;97.10;;;;;;962988;146;27438;-75
2023/07/27 11:26:42;;;;;;;1.95;1.80;;;20.20;97.30;;;;;;962886;146;27256;-75
2023/07/27 11:29:09;;;;;;;2.08;1.98;;;20.20;97.20;;;;;;962945;146;27784;-75
2023/07/27 11:31:35;;;;;;;1.77;1.67;;;20.20;97.10;;;;;;963199;146;27424;-75
2023/07/27 11:34:02;;;;;;;2.35;1.55;;;20.30;97.20;;;;;;961772;146;27399;-75
2023/07/27 11:36:31;;;;;;;3.17;1.92;;;20.30;97.40;;;;;;945671;149;27333;-75
2023/07/27 11:38:58;;;;;;;2.12;2.02;;;20.30;97.50;;;;;;963831;146;27428;-75
2023/07/27 11:41:28;;;;;;;1.95;1.77;;;20.40;97.60;;;;;;953688;147;27351;-75
2023/07/27 11:43:55;;;;;;;2.70;2.50;;;20.50;97.70;;;;;;962613;146;27397;-75
2023/07/27 11:46:20;;;;;;;2.40;2.20;;;20.50;97.60;;;;;;942745;149;27368;-75
2023/07/27 11:48:47;;;;;;;2.20;1.90;;;20.60;97.80;;;;;;959458;145;27388;-75
2023/07/27 11:51:14;;;;;;;1.80;1.70;;;20.70;97.80;;;;;;949786;147;27308;-75
2023/07/27 11:53:40;;;;;;;2.25;2.05;;;20.70;97.80;;;;;;948327;146;27785;-72
2023/07/27 11:56:10;;;;;;;2.17;1.80;;;20.80;97.80;;;;;;932766;150;27775;-72
2023/07/27 11:58:36;;;;;;;2.17;1.50;;;20.90;97.80;;;;;;950334;147;27413;-72
2023/07/27 12:01:03;;;;;;;2.90;2.40;;;21.00;97.50;;;;;;949108;147;27836;-72
2023/07/27 12:03:31;;;;;;;2.70;1.92;;;21.00;97.20;;;;;;922768;150;27334;-72
2023/07/27 12:05:56;;;;;;;2.00;1.80;;;21.00;96.80;;;;;;939568;148;27365;-72
2023/07/27 12:08:23;;;;;;;2.02;1.85;;;21.10;96.50;;;;;;941606;149;27397;-72
2023/07/27 12:10:52;;;;;;;2.00;1.87;;;21.10;96.40;;;;;;926738;150;27421;-72
2023/07/27 12:13:24;;;;;;;2.00;1.90;;;21.10;96.30;;;;;;925235;150;27385;-72
2023/07/27 12:15:48;;;;;;;3.05;1.80;;;21.10;96.20;;;;;;948375;147;27332;-72
2023/07/27 12:18:15;;;;;;;3.00;1.80;;;21.10;96.20;;;;;;948675;147;27305;-72
2023/07/27 12:20:41;;;;;;;2.10;1.90;;;21.10;96.30;;;;;;948958;147;27347;-72
2023/07/27 12:23:08;;;;;;;2.92;1.80;;;21.10;96.40;;;;;;948999;147;27344;-72
2023/07/27 12:25:34;;;;;;;2.20;2.10;;;21.10;96.40;;;;;;926658;150;27365;-72
2023/07/27 12:28:02;;;;;;;1.70;1.60;;;21.10;96.20;;;;;;942114;149;27427;-72
2023/07/27 12:30:27;;;;;;;1.90;1.55;;;21.10;96.00;;;;;;932780;150;27330;-72
2023/07/27 12:32:54;;;;;;;1.98;1.87;;;21.10;96.00;;;;;;949359;147;27341;-72
2023/07/27 12:35:21;;;;;;;2.12;1.92;;;21.10;96.40;;;;;;948950;147;27901;-72
2023/07/27 12:37:47;;;;;;;2.42;1.87;;;21.10;96.70;;;;;;948882;146;27400;-71
2023/07/27 12:40:14;;;;;;;2.87;1.80;;;21.10;97.40;;;;;;949029;146;27307;-72
2023/07/27 12:42:40;;;;;;;3.02;2.70;;;21.20;97.70;;;;;;932713;150;27431;-72
2023/07/27 12:45:07;;;;;;;2.08;1.75;;;21.20;97.80;;;;;;949794;147;27433;-71
2023/07/27 12:47:34;;;;;;;2.20;2.00;;;21.30;97.90;;;;;;949171;147;27344;-72